createdAt,value
2023-05-14T00:02:39.800Z,7.51
2023-05-14T00:05:28.245Z,7.52
2023-05-14T00:08:16.359Z,7.51
2023-05-14T00:11:04.593Z,7.49
2023-05-14T00:13:52.563Z,7.44
2023-05-14T00:16:42.870Z,7.42
2023-05-14T00:19:42.039Z,7.40
2023-05-14T00:22:30.194Z,7.39
2023-05-14T00:25:18.322Z,7.39
2023-05-14T00:28:06.615Z,7.38
2023-05-14T00:30:54.748Z,7.38
2023-05-14T00:33:24.113Z,7.38
2023-05-14T00:35:52.494Z,7.39
2023-05-14T00:38:20.869Z,7.39
2023-05-14T00:40:52.163Z,7.39
2023-05-14T00:43:21.321Z,7.41
2023-05-14T00:45:51.355Z,7.43
2023-05-14T00:48:20.225Z,7.44
2023-05-14T00:50:49.729Z,7.46
2023-05-14T00:53:21.288Z,7.48
2023-05-14T00:55:50.178Z,7.53
2023-05-14T00:58:19.686Z,7.58
2023-05-14T01:00:48.428Z,7.61
2023-05-14T01:03:16.933Z,7.65
2023-05-14T01:05:51.686Z,7.68
2023-05-14T01:08:20.065Z,7.69
2023-05-14T01:10:52.644Z,7.70
2023-05-14T01:13:43.964Z,7.69
2023-05-14T01:16:13.200Z,7.67
2023-05-14T01:18:44.186Z,7.66
2023-05-14T01:21:40.532Z,7.66
2023-05-14T01:24:09.330Z,7.66
2023-05-14T01:26:37.564Z,7.65
2023-05-14T01:29:08.541Z,7.64
2023-05-14T01:31:39.112Z,7.63
2023-05-14T01:34:08.861Z,7.64
2023-05-14T01:36:37.273Z,7.65
2023-05-14T01:39:05.945Z,7.65
2023-05-14T01:41:34.535Z,7.65
2023-05-14T01:44:03.730Z,7.68
2023-05-14T01:46:32.964Z,7.68
2023-05-14T01:49:01.368Z,7.69
2023-05-14T01:51:29.895Z,7.69
2023-05-14T01:53:58.477Z,7.69
2023-05-14T01:56:27.366Z,7.68
2023-05-14T01:58:56.978Z,7.68
2023-05-14T02:01:26.374Z,7.68
2023-05-14T02:03:54.771Z,7.67
2023-05-14T02:06:23.447Z,7.66
2023-05-14T02:08:51.833Z,7.65
2023-05-14T02:11:20.559Z,7.65
2023-05-14T02:13:48.767Z,7.65
2023-05-14T02:16:17.091Z,7.64
2023-05-14T02:18:45.588Z,7.65
2023-05-14T02:21:13.877Z,7.67
2023-05-14T02:23:43.334Z,7.68
2023-05-14T02:26:12.537Z,7.69
2023-05-14T02:28:40.926Z,7.68
2023-05-14T02:31:09.037Z,7.68
2023-05-14T02:33:37.392Z,7.68
2023-05-14T02:36:06.636Z,7.68
2023-05-14T02:38:34.943Z,7.69
2023-05-14T02:41:03.233Z,7.69
2023-05-14T02:43:31.843Z,7.68
2023-05-14T02:45:59.964Z,7.66
2023-05-14T02:48:28.160Z,7.62
2023-05-14T02:50:56.539Z,7.57
2023-05-14T02:53:24.971Z,7.53
2023-05-14T02:55:53.293Z,7.49
2023-05-14T02:58:25.485Z,7.45
2023-05-14T03:00:56.885Z,7.42
2023-05-14T03:03:25.761Z,7.40
2023-05-14T03:05:54.397Z,7.38
2023-05-14T03:08:22.681Z,7.36
2023-05-14T03:10:51.151Z,7.36
2023-05-14T03:13:20.910Z,7.37
2023-05-14T03:15:49.347Z,7.38
2023-05-14T03:18:17.820Z,7.42
2023-05-14T03:20:47.854Z,7.45
2023-05-14T03:23:16.222Z,7.52
2023-05-14T03:25:44.516Z,7.59
2023-05-14T03:28:13.595Z,7.67
2023-05-14T03:30:41.818Z,7.77
2023-05-14T03:33:11.790Z,7.89
2023-05-14T03:35:40.285Z,8.01
2023-05-14T03:38:08.394Z,8.15
2023-05-14T03:40:36.850Z,8.30
2023-05-14T03:43:05.239Z,8.45
2023-05-14T03:45:33.688Z,8.60
2023-05-14T03:48:01.955Z,8.72
2023-05-14T03:50:31.676Z,8.84
2023-05-14T03:52:59.954Z,8.95
2023-05-14T03:55:28.436Z,9.05
2023-05-14T03:57:56.745Z,9.15
2023-05-14T04:00:25.446Z,9.24
2023-05-14T04:02:54.194Z,9.34
2023-05-14T04:05:24.730Z,9.44
2023-05-14T04:07:53.308Z,9.55
2023-05-14T04:10:22.298Z,9.66
2023-05-14T04:12:51.087Z,9.76
2023-05-14T04:15:19.567Z,9.87
2023-05-14T04:17:47.999Z,9.97
2023-05-14T04:20:16.345Z,10.06
2023-05-14T04:22:44.563Z,10.15
2023-05-14T04:25:12.884Z,10.25
2023-05-14T04:27:41.185Z,10.35
2023-05-14T04:30:09.849Z,10.46
2023-05-14T04:32:38.351Z,10.57
2023-05-14T04:35:07.121Z,10.68
2023-05-14T04:37:35.500Z,10.79
2023-05-14T04:40:04.435Z,10.92
2023-05-14T04:42:32.766Z,11.01
2023-05-14T04:45:01.253Z,11.13
2023-05-14T04:47:30.057Z,11.25
2023-05-14T04:49:58.525Z,11.40
2023-05-14T04:52:55.410Z,11.55
2023-05-14T04:56:03.513Z,11.75
2023-05-14T04:58:34.747Z,12.00
2023-05-14T05:01:05.382Z,12.17
2023-05-14T05:03:33.687Z,12.30
2023-05-14T05:06:01.865Z,12.42
2023-05-14T05:08:30.154Z,12.53
2023-05-14T05:10:58.369Z,12.65
2023-05-14T05:13:26.855Z,12.74
2023-05-14T05:15:55.283Z,12.80
2023-05-14T05:18:23.822Z,12.87
2023-05-14T05:20:51.997Z,12.97
2023-05-14T05:23:20.480Z,13.07
2023-05-14T05:25:49.110Z,13.17
2023-05-14T05:28:17.340Z,13.32
2023-05-14T05:30:45.836Z,13.54
2023-05-14T05:33:14.200Z,13.82
2023-05-14T05:35:43.426Z,14.14
2023-05-14T05:38:11.598Z,14.45
2023-05-14T05:40:39.864Z,14.75
2023-05-14T05:43:08.306Z,15.04
2023-05-14T05:45:36.505Z,15.36
2023-05-14T05:48:05.268Z,15.64
2023-05-14T05:50:33.897Z,15.87
2023-05-14T05:53:02.468Z,16.07
2023-05-14T05:55:30.800Z,16.31
2023-05-14T05:57:59.238Z,16.59
2023-05-14T06:00:27.651Z,16.86
2023-05-14T06:02:56.405Z,17.09
2023-05-14T06:05:24.710Z,17.31
2023-05-14T06:07:56.130Z,17.52
2023-05-14T06:10:24.734Z,17.72
2023-05-14T06:12:53.218Z,17.94
2023-05-14T06:15:21.584Z,18.11
2023-05-14T06:17:50.058Z,18.22
2023-05-14T06:20:18.450Z,18.36
2023-05-14T06:22:46.687Z,18.50
2023-05-14T06:25:14.911Z,18.70
2023-05-14T06:27:43.234Z,18.94
2023-05-14T06:30:11.860Z,19.17
2023-05-14T06:32:40.150Z,19.35
2023-05-14T06:35:08.667Z,19.49
2023-05-14T06:37:36.998Z,19.66
2023-05-14T06:40:05.608Z,19.81
2023-05-14T06:42:34.001Z,19.95
2023-05-14T06:45:02.661Z,20.14
2023-05-14T06:47:31.090Z,20.29
2023-05-14T06:50:01.789Z,20.45
2023-05-14T06:52:30.045Z,20.57
2023-05-14T06:54:58.423Z,20.69
2023-05-14T06:57:26.909Z,20.84
2023-05-14T06:59:55.510Z,21.04
2023-05-14T07:02:24.024Z,20.95
2023-05-14T07:04:52.357Z,21.05
2023-05-14T07:07:21.471Z,21.27
2023-05-14T07:09:49.934Z,21.48
2023-05-14T07:12:18.318Z,21.64
2023-05-14T07:14:46.906Z,21.73
2023-05-14T07:17:15.247Z,21.73
2023-05-14T07:19:43.759Z,21.59
2023-05-14T07:22:12.045Z,21.45
2023-05-14T07:24:40.421Z,21.29
2023-05-14T07:27:09.217Z,21.39
2023-05-14T07:29:37.593Z,21.64
2023-05-14T07:32:06.184Z,21.87
2023-05-14T07:34:34.762Z,22.11
2023-05-14T07:37:03.133Z,22.36
2023-05-14T07:39:31.436Z,22.61
2023-05-14T07:42:00.496Z,22.85
2023-05-14T07:44:28.706Z,23.00
2023-05-14T07:46:57.245Z,23.07
2023-05-14T07:49:25.350Z,23.05
2023-05-14T07:51:53.524Z,22.96
2023-05-14T07:54:21.934Z,22.94
2023-05-14T07:56:50.595Z,22.95
2023-05-14T07:59:18.801Z,22.87
2023-05-14T08:01:47.172Z,23.00
2023-05-14T08:04:16.417Z,23.17
2023-05-14T08:06:44.916Z,23.27
2023-05-14T08:09:13.313Z,23.54
2023-05-14T08:11:41.799Z,23.64
2023-05-14T08:14:09.946Z,23.48
2023-05-14T08:16:39.055Z,23.40
2023-05-14T08:19:07.612Z,23.43
2023-05-14T08:21:35.953Z,23.47
2023-05-14T08:24:04.319Z,23.56
2023-05-14T08:26:32.920Z,23.59
2023-05-14T08:29:01.493Z,23.56
2023-05-14T08:31:29.834Z,23.36
2023-05-14T08:33:58.559Z,23.21
2023-05-14T08:36:27.141Z,23.19
2023-05-14T08:38:55.195Z,23.25
2023-05-14T08:41:23.702Z,23.23
2023-05-14T08:44:18.200Z,23.09
2023-05-14T08:46:46.983Z,23.20
2023-05-14T08:49:15.653Z,23.12
2023-05-14T08:51:44.765Z,23.19
2023-05-14T08:54:15.743Z,23.26
2023-05-14T08:56:47.049Z,23.47
2023-05-14T08:59:15.126Z,23.69
2023-05-14T09:01:46.662Z,23.94
2023-05-14T09:04:15.980Z,24.13
2023-05-14T09:06:44.636Z,24.11
2023-05-14T09:09:13.314Z,24.03
2023-05-14T09:11:47.717Z,23.92
2023-05-14T09:14:16.269Z,24.06
2023-05-14T09:16:48.472Z,24.19
2023-05-14T09:19:19.379Z,23.97
2023-05-14T09:21:48.881Z,23.85
2023-05-14T09:24:24.240Z,23.92
2023-05-14T09:26:56.514Z,24.01
2023-05-14T09:29:31.284Z,24.34
2023-05-14T09:32:00.760Z,24.70
2023-05-14T09:34:29.904Z,24.89
2023-05-14T09:36:58.948Z,25.02
2023-05-14T09:39:27.418Z,25.14
2023-05-14T09:41:56.397Z,25.23
2023-05-14T09:44:25.200Z,25.36
2023-05-14T09:46:54.611Z,25.60
2023-05-14T09:49:22.968Z,25.76
2023-05-14T09:51:51.575Z,25.73
2023-05-14T09:54:20.156Z,25.61
2023-05-14T09:56:48.505Z,25.58
2023-05-14T09:59:16.916Z,25.60
2023-05-14T10:01:46.476Z,25.27
2023-05-14T10:04:15.188Z,24.97
2023-05-14T10:06:48.095Z,24.98
2023-05-14T10:09:17.055Z,25.04
2023-05-14T10:11:50.373Z,25.19
2023-05-14T10:14:25.156Z,25.33
2023-05-14T10:16:53.937Z,25.55
2023-05-14T10:19:24.633Z,25.62
2023-05-14T10:22:13.010Z,25.58
2023-05-14T10:24:41.667Z,25.72
2023-05-14T10:27:10.664Z,26.01
2023-05-14T10:29:39.057Z,26.27
2023-05-14T10:32:08.322Z,26.41
2023-05-14T10:34:44.264Z,26.42
2023-05-14T10:37:14.732Z,26.02
2023-05-14T10:39:46.015Z,25.74
2023-05-14T10:42:16.916Z,25.63
2023-05-14T10:44:48.791Z,25.76
2023-05-14T10:47:18.053Z,25.89
2023-05-14T10:49:49.209Z,25.87
2023-05-14T10:52:20.991Z,25.42
2023-05-14T10:55:02.835Z,25.07
2023-05-14T10:57:32.900Z,25.08
2023-05-14T11:00:01.865Z,25.14
2023-05-14T11:02:37.156Z,25.29
2023-05-14T11:05:08.318Z,25.47
2023-05-14T11:07:38.116Z,25.67
2023-05-14T11:10:06.685Z,25.74
2023-05-14T11:12:35.896Z,25.85
2023-05-14T11:15:06.036Z,25.96
2023-05-14T11:17:35.420Z,26.06
2023-05-14T11:20:05.788Z,26.21
2023-05-14T11:22:34.739Z,26.34
2023-05-14T11:25:03.349Z,26.38
2023-05-14T11:27:33.699Z,26.40
2023-05-14T11:30:02.415Z,26.22
2023-05-14T11:32:33.910Z,25.86
2023-05-14T11:35:02.646Z,25.76
2023-05-14T11:37:31.167Z,25.64
2023-05-14T11:40:00.048Z,25.56
2023-05-14T11:42:28.636Z,25.60
2023-05-14T11:44:56.912Z,25.66
2023-05-14T11:47:25.328Z,25.71
2023-05-14T11:49:53.532Z,25.77
2023-05-14T11:52:22.166Z,25.84
2023-05-14T11:54:51.148Z,25.96
2023-05-14T11:57:20.521Z,26.04
2023-05-14T11:59:49.879Z,26.13
2023-05-14T12:02:20.050Z,26.24
2023-05-14T12:04:51.794Z,26.37
2023-05-14T12:07:20.117Z,26.46
2023-05-14T12:09:52.002Z,26.45
2023-05-14T12:12:21.499Z,26.58
2023-05-14T12:14:50.402Z,26.63
2023-05-14T12:17:19.980Z,26.68
2023-05-14T12:19:50.012Z,26.84
2023-05-14T12:22:19.422Z,26.99
2023-05-14T12:24:58.035Z,27.21
2023-05-14T12:27:27.132Z,27.31
2023-05-14T12:30:19.869Z,27.34
2023-05-14T12:32:52.117Z,27.27
2023-05-14T12:35:21.610Z,27.33
2023-05-14T12:37:49.836Z,27.26
2023-05-14T12:40:18.120Z,27.26
2023-05-14T12:42:46.599Z,27.35
2023-05-14T12:45:14.970Z,27.53
2023-05-14T12:47:43.252Z,27.76
2023-05-14T12:50:11.939Z,27.82
2023-05-14T12:52:40.356Z,27.80
2023-05-14T12:55:09.646Z,27.75
2023-05-14T12:57:39.577Z,27.66
2023-05-14T13:00:13.031Z,27.59
2023-05-14T13:02:43.681Z,27.54
2023-05-14T13:05:12.853Z,27.55
2023-05-14T13:07:41.590Z,27.52
2023-05-14T13:10:10.499Z,27.50
2023-05-14T13:12:39.018Z,27.54
2023-05-14T13:15:07.602Z,27.59
2023-05-14T13:17:36.246Z,27.66
2023-05-14T13:20:05.026Z,27.66
2023-05-14T13:22:33.442Z,27.29
2023-05-14T13:25:01.757Z,26.82
2023-05-14T13:27:30.753Z,26.44
2023-05-14T13:29:59.047Z,26.16
2023-05-14T13:32:27.355Z,26.10
2023-05-14T13:34:55.854Z,25.78
2023-05-14T13:37:24.643Z,25.44
2023-05-14T13:39:52.864Z,25.35
2023-05-14T13:42:21.342Z,24.99
2023-05-14T13:44:49.642Z,24.66
2023-05-14T13:47:17.855Z,24.24
2023-05-14T13:49:46.485Z,23.80
2023-05-14T13:52:15.073Z,23.46
2023-05-14T13:54:43.332Z,23.29
2023-05-14T13:57:11.524Z,23.13
2023-05-14T13:59:40.108Z,23.10
2023-05-14T14:02:08.907Z,23.11
2023-05-14T14:04:37.278Z,23.10
2023-05-14T14:07:05.968Z,22.98
2023-05-14T14:09:36.087Z,23.01
2023-05-14T14:12:04.937Z,23.23
2023-05-14T14:14:33.179Z,23.36
2023-05-14T14:17:01.635Z,23.44
2023-05-14T14:19:30.340Z,23.63
2023-05-14T14:21:58.584Z,23.82
2023-05-14T14:24:26.996Z,23.82
2023-05-14T14:26:55.370Z,23.76
2023-05-14T14:29:24.155Z,23.68
2023-05-14T14:31:52.448Z,23.64
2023-05-14T14:34:21.222Z,23.52
2023-05-14T14:36:49.521Z,23.32
2023-05-14T14:39:17.793Z,23.23
2023-05-14T14:41:47.718Z,23.18
2023-05-14T14:44:16.090Z,23.16
2023-05-14T14:46:44.247Z,23.25
2023-05-14T14:49:12.426Z,23.37
2023-05-14T14:51:41.114Z,23.55
2023-05-14T14:54:09.496Z,23.49
2023-05-14T14:56:37.669Z,23.26
2023-05-14T14:59:06.242Z,23.15
2023-05-14T15:01:34.666Z,23.04
2023-05-14T15:04:03.198Z,22.96
2023-05-14T15:06:31.502Z,22.90
2023-05-14T15:08:59.832Z,22.82
2023-05-14T15:11:29.082Z,22.62
2023-05-14T15:13:57.258Z,22.36
2023-05-14T15:16:25.772Z,22.13
2023-05-14T15:18:54.537Z,21.98
2023-05-14T15:21:23.178Z,21.80
2023-05-14T15:23:51.500Z,21.66
2023-05-14T15:26:19.854Z,21.53
2023-05-14T15:28:48.056Z,21.37
2023-05-14T15:31:16.828Z,21.26
2023-05-14T15:33:45.324Z,21.19
2023-05-14T15:36:13.607Z,21.07
2023-05-14T15:38:42.496Z,20.98
2023-05-14T15:41:10.886Z,20.92
2023-05-14T15:43:39.056Z,20.89
2023-05-14T15:46:07.444Z,20.81
2023-05-14T15:48:36.223Z,20.73
2023-05-14T15:51:04.598Z,20.63
2023-05-14T15:53:32.795Z,20.49
2023-05-14T15:56:01.034Z,20.36
2023-05-14T15:58:29.330Z,20.18
2023-05-14T16:00:57.547Z,19.95
2023-05-14T16:03:26.176Z,19.79
2023-05-14T16:05:55.491Z,19.70
2023-05-14T16:08:23.876Z,19.60
2023-05-14T16:10:52.053Z,19.54
2023-05-14T16:13:20.236Z,19.49
2023-05-14T16:15:48.600Z,19.41
2023-05-14T16:18:17.191Z,19.32
2023-05-14T16:20:45.581Z,19.23
2023-05-14T16:23:13.953Z,19.16
2023-05-14T16:25:42.431Z,19.11
2023-05-14T16:28:11.027Z,19.02
2023-05-14T16:30:39.188Z,18.93
2023-05-14T16:33:07.511Z,18.83
2023-05-14T16:35:36.059Z,18.71
2023-05-14T16:38:04.437Z,18.62
2023-05-14T16:40:32.708Z,18.52
2023-05-14T16:43:01.098Z,18.40
2023-05-14T16:45:30.188Z,18.28
2023-05-14T16:47:58.492Z,18.13
2023-05-14T16:50:27.253Z,17.99
2023-05-14T16:52:55.847Z,17.85
2023-05-14T16:55:24.436Z,17.71
2023-05-14T16:57:52.698Z,17.60
2023-05-14T17:00:21.262Z,17.49
2023-05-14T17:02:51.155Z,17.39
2023-05-14T17:05:19.955Z,17.27
2023-05-14T17:07:48.170Z,17.15
2023-05-14T17:10:17.154Z,17.02
2023-05-14T17:12:45.696Z,16.88
2023-05-14T17:15:12.695Z,16.75
2023-05-14T17:17:41.218Z,16.61
2023-05-14T17:20:09.825Z,16.46
2023-05-14T17:22:38.234Z,16.32
2023-05-14T17:25:06.923Z,16.18
2023-05-14T17:27:36.276Z,16.06
2023-05-14T17:30:04.716Z,15.95
2023-05-14T17:32:32.890Z,15.84
2023-05-14T17:35:01.482Z,15.72
2023-05-14T17:37:29.765Z,15.63
2023-05-14T17:39:58.021Z,15.54
2023-05-14T17:42:26.404Z,15.46
2023-05-14T17:44:54.778Z,15.38
2023-05-14T17:47:23.157Z,15.30
2023-05-14T17:49:51.550Z,15.21
2023-05-14T17:52:19.706Z,15.12
2023-05-14T17:54:48.216Z,15.04
2023-05-14T17:57:16.590Z,14.96
2023-05-14T17:59:44.693Z,14.87
2023-05-14T18:02:13.054Z,14.77
2023-05-14T18:04:41.347Z,14.65
2023-05-14T18:07:09.767Z,14.54
2023-05-14T18:09:38.084Z,14.45
2023-05-14T18:12:06.574Z,14.36
2023-05-14T18:14:34.760Z,14.26
2023-05-14T18:17:03.297Z,14.18
2023-05-14T18:19:31.914Z,14.11
2023-05-14T18:22:00.506Z,14.03
2023-05-14T18:24:28.786Z,13.94
2023-05-14T18:26:57.389Z,13.86
2023-05-14T18:29:25.860Z,13.78
2023-05-14T18:31:54.128Z,13.71
2023-05-14T18:34:22.302Z,13.65
2023-05-14T18:36:51.190Z,13.59
2023-05-14T18:39:19.469Z,13.55
2023-05-14T18:41:48.054Z,13.49
2023-05-14T18:44:16.745Z,13.45
2023-05-14T18:46:45.246Z,13.39
2023-05-14T18:49:13.503Z,13.33
2023-05-14T18:51:41.681Z,13.29
2023-05-14T18:54:10.263Z,13.24
2023-05-14T18:56:40.158Z,13.20
2023-05-14T18:59:09.479Z,13.13
2023-05-14T19:01:37.805Z,13.09
2023-05-14T19:04:06.551Z,13.05
2023-05-14T19:06:35.250Z,13.01
2023-05-14T19:09:04.549Z,12.98
2023-05-14T19:11:32.812Z,12.93
2023-05-14T19:14:01.058Z,12.90
2023-05-14T19:16:29.477Z,12.87
2023-05-14T19:18:57.993Z,12.84
2023-05-14T19:21:26.749Z,12.82
2023-05-14T19:23:55.023Z,12.80
2023-05-14T19:26:23.397Z,12.78
2023-05-14T19:28:52.880Z,12.74
2023-05-14T19:31:21.085Z,12.70
2023-05-14T19:33:49.460Z,12.65
2023-05-14T19:36:17.939Z,12.59
2023-05-14T19:38:46.845Z,12.53
2023-05-14T19:41:15.115Z,12.48
2023-05-14T19:43:43.637Z,12.44
2023-05-14T19:46:12.278Z,12.43
2023-05-14T19:48:40.657Z,12.41
2023-05-14T19:51:08.936Z,12.40
2023-05-14T19:53:37.519Z,12.38
2023-05-14T19:56:06.003Z,12.37
2023-05-14T19:58:34.291Z,12.33
2023-05-14T20:01:02.524Z,12.28
2023-05-14T20:03:31.142Z,12.21
2023-05-14T20:05:59.428Z,12.14
2023-05-14T20:08:29.245Z,12.06
2023-05-14T20:10:57.514Z,11.98
2023-05-14T20:13:25.906Z,11.89
2023-05-14T20:15:55.336Z,11.82
2023-05-14T20:18:23.782Z,11.77
2023-05-14T20:20:52.134Z,11.71
2023-05-14T20:23:20.940Z,11.67
2023-05-14T20:25:49.243Z,11.63
2023-05-14T20:28:17.612Z,11.58
2023-05-14T20:30:46.544Z,11.52
2023-05-14T20:33:15.260Z,11.47
2023-05-14T20:35:44.278Z,11.40
2023-05-14T20:38:13.615Z,11.33
2023-05-14T20:40:42.272Z,11.28
2023-05-14T20:43:10.420Z,11.23
2023-05-14T20:45:39.341Z,11.18
2023-05-14T20:48:10.255Z,11.13
2023-05-14T20:50:38.760Z,11.07
2023-05-14T20:53:07.041Z,11.02
2023-05-14T20:55:35.627Z,10.96
2023-05-14T20:58:03.998Z,10.92
2023-05-14T21:00:32.294Z,10.88
2023-05-14T21:03:01.041Z,10.86
2023-05-14T21:05:29.590Z,10.83
2023-05-14T21:07:57.734Z,10.81
2023-05-14T21:10:26.290Z,10.78
2023-05-14T21:12:55.306Z,10.75
2023-05-14T21:15:23.694Z,10.71
2023-05-14T21:17:52.682Z,10.68
2023-05-14T21:20:21.473Z,10.62
2023-05-14T21:22:49.850Z,10.59
2023-05-14T21:25:18.069Z,10.55
2023-05-14T21:27:46.510Z,10.50
2023-05-14T21:30:15.190Z,10.47
2023-05-14T21:32:43.395Z,10.43
2023-05-14T21:35:11.762Z,10.40
2023-05-14T21:37:40.609Z,10.36
2023-05-14T21:40:09.594Z,10.33
2023-05-14T21:42:39.672Z,10.30
2023-05-14T21:45:08.184Z,10.28
2023-05-14T21:47:37.021Z,10.28
2023-05-14T21:50:05.928Z,10.27
2023-05-14T21:52:33.977Z,10.27
2023-05-14T21:55:02.384Z,10.25
2023-05-14T21:57:34.113Z,10.22
2023-05-14T22:00:04.401Z,10.20
2023-05-14T22:02:32.832Z,10.18
2023-05-14T22:05:01.414Z,10.15
2023-05-14T22:07:29.696Z,10.12
2023-05-14T22:09:58.382Z,10.09
2023-05-14T22:12:26.973Z,10.08
2023-05-14T22:14:55.755Z,10.07
2023-05-14T22:17:24.160Z,10.08
2023-05-14T22:19:52.257Z,10.09
2023-05-14T22:22:20.792Z,10.10
2023-05-14T22:24:49.066Z,10.10
2023-05-14T22:27:17.856Z,10.09
2023-05-14T22:29:46.134Z,10.08
2023-05-14T22:32:14.624Z,10.06
2023-05-14T22:34:42.894Z,10.03
2023-05-14T22:37:11.210Z,10.03
2023-05-14T22:39:39.670Z,10.02
2023-05-14T22:42:08.356Z,10.01
2023-05-14T22:44:37.237Z,10.00
2023-05-14T22:47:05.724Z,10.00
2023-05-14T22:49:34.216Z,9.99
2023-05-14T22:52:02.473Z,9.99
2023-05-14T22:54:30.646Z,9.96
2023-05-14T22:56:59.135Z,9.93
2023-05-14T22:59:27.331Z,9.89
2023-05-14T23:01:55.646Z,9.85
2023-05-14T23:04:24.406Z,9.80
2023-05-14T23:06:52.961Z,9.74
2023-05-14T23:09:21.133Z,9.70
2023-05-14T23:11:49.305Z,9.66
2023-05-14T23:14:18.617Z,9.63
2023-05-14T23:16:47.001Z,9.63
2023-05-14T23:19:15.476Z,9.62
2023-05-14T23:21:43.967Z,9.62
2023-05-14T23:24:12.332Z,9.63
2023-05-14T23:26:40.713Z,9.64
2023-05-14T23:29:08.892Z,9.63
2023-05-14T23:31:37.744Z,9.63
2023-05-14T23:34:06.003Z,9.64
2023-05-14T23:36:34.239Z,9.64
2023-05-14T23:39:02.612Z,9.66
2023-05-14T23:41:31.919Z,9.69
2023-05-14T23:44:00.096Z,9.71
2023-05-14T23:46:28.384Z,9.73
2023-05-14T23:48:57.249Z,9.76
2023-05-14T23:51:26.573Z,9.79
2023-05-14T23:53:58.680Z,9.81
2023-05-14T23:56:30.614Z,9.81
2023-05-14T23:58:59.170Z,9.79
